createdAt,value
2019-05-18T00:02:26.697Z,11.81
2019-05-18T00:04:56.635Z,11.54
2019-05-18T00:07:26.555Z,11.62
2019-05-18T00:09:56.475Z,11.67
2019-05-18T00:12:26.339Z,11.72
2019-05-18T00:14:56.349Z,11.70
2019-05-18T00:17:26.334Z,11.69
2019-05-18T00:19:56.263Z,11.69
2019-05-18T00:22:26.184Z,11.81
2019-05-18T00:24:56.087Z,11.96
2019-05-18T00:27:26.014Z,11.87
2019-05-18T00:29:56.017Z,11.73
2019-05-18T00:32:26.030Z,11.68
2019-05-18T00:34:55.950Z,11.73
2019-05-18T00:37:25.980Z,11.91
2019-05-18T00:39:55.900Z,12.07
2019-05-18T00:42:25.743Z,12.13
2019-05-18T00:44:55.648Z,12.11
2019-05-18T00:47:40.059Z,12.05
2019-05-18T00:49:57.115Z,12.14
2019-05-18T00:52:27.121Z,12.20
2019-05-18T00:54:56.947Z,12.16
2019-05-18T00:57:26.787Z,12.25
2019-05-18T00:59:56.704Z,12.15
2019-05-18T01:02:26.540Z,12.14
2019-05-18T01:04:56.613Z,12.19
2019-05-18T01:07:26.608Z,12.13
2019-05-18T01:09:56.657Z,11.93
2019-05-18T01:12:26.590Z,11.84
2019-05-18T01:14:56.505Z,11.75
2019-05-18T01:17:26.444Z,11.77
2019-05-18T01:19:56.449Z,11.62
2019-05-18T01:22:26.371Z,11.56
2019-05-18T01:24:56.351Z,11.57
2019-05-18T01:27:26.348Z,11.71
2019-05-18T01:29:56.344Z,11.84
2019-05-18T01:32:26.223Z,12.01
2019-05-18T01:34:56.148Z,11.84
2019-05-18T01:37:26.092Z,11.63
2019-05-18T01:39:56.005Z,11.55
2019-05-18T01:42:26.101Z,11.37
2019-05-18T01:44:56.113Z,11.40
2019-05-18T01:47:27.019Z,11.31
2019-05-18T01:49:56.954Z,11.41
2019-05-18T01:52:26.896Z,11.31
2019-05-18T01:54:56.938Z,11.25
2019-05-18T01:57:26.819Z,11.28
2019-05-18T01:59:56.754Z,11.37
2019-05-18T02:02:26.628Z,11.31
2019-05-18T02:04:56.542Z,11.18
2019-05-18T02:07:26.538Z,11.03
2019-05-18T02:09:56.405Z,10.94
2019-05-18T02:12:26.318Z,10.96
2019-05-18T02:14:56.149Z,11.08
2019-05-18T02:17:25.998Z,11.25
2019-05-18T02:19:55.840Z,10.99
2019-05-18T02:22:25.775Z,11.19
2019-05-18T02:24:55.689Z,11.37
2019-05-18T02:27:25.678Z,11.44
2019-05-18T02:29:55.736Z,11.20
2019-05-18T02:32:25.668Z,11.20
2019-05-18T02:34:55.573Z,11.07
2019-05-18T02:37:25.573Z,10.85
2019-05-18T02:39:56.681Z,11.05
2019-05-18T02:42:30.554Z,10.99
2019-05-18T02:44:58.324Z,11.03
2019-05-18T02:47:28.340Z,10.98
2019-05-18T02:49:58.237Z,10.68
2019-05-18T02:52:28.173Z,10.51
2019-05-18T02:54:58.028Z,10.43
2019-05-18T02:57:27.999Z,10.56
2019-05-18T02:59:57.918Z,10.67
2019-05-18T03:02:27.816Z,10.69
2019-05-18T03:04:58.896Z,10.68
2019-05-18T03:07:28.890Z,11.03
2019-05-18T03:09:58.711Z,11.16
2019-05-18T03:12:28.723Z,11.14
2019-05-18T03:14:58.711Z,11.10
2019-05-18T03:17:28.718Z,11.08
2019-05-18T03:19:58.694Z,10.86
2019-05-18T03:22:28.604Z,10.81
2019-05-18T03:24:58.595Z,10.84
2019-05-18T03:27:28.489Z,10.77
2019-05-18T03:29:58.392Z,10.83
2019-05-18T03:32:28.368Z,10.89
2019-05-18T03:34:58.390Z,10.97
2019-05-18T03:37:28.248Z,10.86
2019-05-18T03:39:59.302Z,10.42
2019-05-18T03:42:29.161Z,10.13
2019-05-18T03:44:59.287Z,10.24
2019-05-18T03:47:29.261Z,10.77
2019-05-18T03:50:00.389Z,11.22
2019-05-18T03:52:30.386Z,11.36
2019-05-18T03:55:00.271Z,11.45
2019-05-18T03:57:30.180Z,11.52
2019-05-18T04:00:00.418Z,11.60
2019-05-18T04:02:30.262Z,11.72
2019-05-18T04:05:00.177Z,11.50
2019-05-18T04:07:30.046Z,11.20
2019-05-18T04:09:59.964Z,11.20
2019-05-18T04:12:29.856Z,11.36
2019-05-18T04:14:59.761Z,11.44
2019-05-18T04:17:29.684Z,11.49
2019-05-18T04:19:59.601Z,11.44
2019-05-18T04:22:29.457Z,11.46
2019-05-18T04:24:59.630Z,11.51
2019-05-18T04:27:29.548Z,11.49
2019-05-18T04:29:59.514Z,11.47
2019-05-18T04:32:29.369Z,11.45
2019-05-18T04:34:59.219Z,11.54
2019-05-18T04:37:29.045Z,11.46
2019-05-18T04:39:58.882Z,11.44
2019-05-18T04:42:28.868Z,11.34
2019-05-18T04:44:58.690Z,11.26
2019-05-18T04:47:28.672Z,11.14
2019-05-18T04:50:04.984Z,11.15
2019-05-18T04:52:30.053Z,11.37
2019-05-18T04:54:59.902Z,11.68
2019-05-18T04:57:29.898Z,11.71
2019-05-18T04:59:59.743Z,11.89
2019-05-18T05:02:29.643Z,12.18
2019-05-18T05:04:59.636Z,12.37
2019-05-18T05:07:29.491Z,12.59
2019-05-18T05:09:59.321Z,12.42
2019-05-18T05:12:29.327Z,12.58
2019-05-18T05:15:00.724Z,12.71
2019-05-18T05:17:30.623Z,12.77
2019-05-18T05:20:00.599Z,12.81
2019-05-18T05:22:30.495Z,13.33
2019-05-18T05:25:00.512Z,13.39
2019-05-18T05:27:30.796Z,13.10
2019-05-18T05:30:00.770Z,13.12
2019-05-18T05:32:30.787Z,13.61
2019-05-18T05:35:01.866Z,13.56
2019-05-18T05:37:31.760Z,13.25
2019-05-18T05:40:01.672Z,12.99
2019-05-18T05:42:31.599Z,12.71
2019-05-18T05:45:01.495Z,13.17
2019-05-18T05:47:31.362Z,13.10
2019-05-18T05:50:01.249Z,13.14
2019-05-18T05:52:31.204Z,12.90
2019-05-18T05:55:01.177Z,12.94
2019-05-18T05:57:31.067Z,13.35
2019-05-18T06:00:01.040Z,13.25
2019-05-18T06:02:30.895Z,12.93
2019-05-18T06:05:00.960Z,13.02
2019-05-18T06:07:33.427Z,13.03
2019-05-18T06:10:03.408Z,12.68
2019-05-18T06:12:33.326Z,12.82
2019-05-18T06:15:03.261Z,13.07
2019-05-18T06:17:33.152Z,13.40
2019-05-18T06:20:03.171Z,13.47
2019-05-18T06:22:33.003Z,13.67
2019-05-18T06:25:05.082Z,13.74
2019-05-18T06:27:34.955Z,13.45
2019-05-18T06:30:05.873Z,13.50
2019-05-18T06:32:35.766Z,13.32
2019-05-18T06:35:05.987Z,13.27
2019-05-18T06:37:37.000Z,13.24
2019-05-18T06:40:07.313Z,13.46
2019-05-18T06:42:37.248Z,13.65
2019-05-18T06:45:08.156Z,14.05
2019-05-18T06:47:38.130Z,13.87
2019-05-18T06:50:11.946Z,13.91
2019-05-18T06:52:40.144Z,14.09
2019-05-18T06:55:11.632Z,14.18
2019-05-18T06:57:41.950Z,14.37
2019-05-18T07:00:13.779Z,14.40
2019-05-18T07:02:43.759Z,14.43
2019-05-18T07:05:13.872Z,14.57
2019-05-18T07:07:43.780Z,14.74
2019-05-18T07:10:13.961Z,14.59
2019-05-18T07:12:44.319Z,14.50
2019-05-18T07:15:15.298Z,14.94
2019-05-18T07:17:46.290Z,14.75
2019-05-18T07:20:16.507Z,14.82
2019-05-18T07:22:46.419Z,14.90
2019-05-18T07:25:17.532Z,15.20
2019-05-18T07:27:48.551Z,15.30
2019-05-18T07:30:19.707Z,15.30
2019-05-18T07:32:49.701Z,15.29
2019-05-18T07:35:19.976Z,15.39
2019-05-18T07:37:49.918Z,15.66
2019-05-18T07:40:21.009Z,15.95
2019-05-18T07:42:51.013Z,16.13
2019-05-18T07:45:21.007Z,16.26
2019-05-18T07:47:50.936Z,16.32
2019-05-18T07:50:21.251Z,16.18
2019-05-18T07:52:51.193Z,16.51
2019-05-18T07:55:21.176Z,16.75
2019-05-18T07:57:51.100Z,16.80
2019-05-18T08:00:22.388Z,16.59
2019-05-18T08:02:52.343Z,16.57
2019-05-18T08:05:22.333Z,16.51
2019-05-18T08:07:52.275Z,16.53
2019-05-18T08:10:35.083Z,16.75
2019-05-18T08:13:05.390Z,16.97
2019-05-18T08:15:35.889Z,17.15
2019-05-18T08:18:06.011Z,17.31
2019-05-18T08:20:39.157Z,17.29
2019-05-18T08:23:09.074Z,17.53
2019-05-18T08:25:39.059Z,17.85
2019-05-18T08:28:09.087Z,18.23
2019-05-18T08:30:39.024Z,18.37
2019-05-18T08:33:10.076Z,18.09
2019-05-18T08:35:40.086Z,17.85
2019-05-18T08:38:10.139Z,17.97
2019-05-18T08:40:40.161Z,17.95
2019-05-18T08:43:10.156Z,18.19
2019-05-18T08:45:40.188Z,18.65
2019-05-18T08:48:10.122Z,18.82
2019-05-18T08:50:41.252Z,18.88
2019-05-18T08:53:11.285Z,18.83
2019-05-18T08:55:41.196Z,18.97
2019-05-18T08:58:11.034Z,19.31
2019-05-18T09:00:40.963Z,19.53
2019-05-18T09:03:10.872Z,20.01
2019-05-18T09:05:41.409Z,19.85
2019-05-18T09:08:11.434Z,20.07
2019-05-18T09:10:41.414Z,20.48
2019-05-18T09:13:11.395Z,20.73
2019-05-18T09:15:41.359Z,20.81
2019-05-18T09:18:11.382Z,21.08
2019-05-18T09:20:41.373Z,20.89
2019-05-18T09:23:11.315Z,21.14
2019-05-18T09:25:41.298Z,21.22
2019-05-18T09:28:11.245Z,21.12
2019-05-18T09:30:41.485Z,21.02
2019-05-18T09:33:11.436Z,21.79
2019-05-18T09:35:41.403Z,21.87
2019-05-18T09:38:11.311Z,22.02
2019-05-18T09:40:41.243Z,22.25
2019-05-18T09:43:11.406Z,22.07
2019-05-18T09:45:41.325Z,22.22
2019-05-18T09:48:11.479Z,22.33
2019-05-18T09:50:41.485Z,22.04
2019-05-18T09:53:12.639Z,22.14
2019-05-18T09:55:42.720Z,22.46
2019-05-18T09:58:12.658Z,22.63
2019-05-18T10:00:42.707Z,22.34
2019-05-18T10:03:12.639Z,22.83
2019-05-18T10:05:42.638Z,22.23
2019-05-18T10:08:13.729Z,21.86
2019-05-18T10:10:43.702Z,22.10
2019-05-18T10:13:14.625Z,22.32
2019-05-18T10:15:44.486Z,22.25
2019-05-18T10:18:14.340Z,22.61
2019-05-18T10:20:44.301Z,22.38
2019-05-18T10:23:14.285Z,22.62
2019-05-18T10:25:44.245Z,22.82
2019-05-18T10:28:14.191Z,23.15
2019-05-18T10:30:44.224Z,22.90
2019-05-18T10:33:14.327Z,22.84
2019-05-18T10:35:44.377Z,23.02
2019-05-18T10:38:14.368Z,23.02
2019-05-18T10:40:44.387Z,22.15
2019-05-18T10:43:14.361Z,22.00
2019-05-18T10:45:45.267Z,21.80
2019-05-18T10:48:15.629Z,21.86
2019-05-18T10:50:45.648Z,21.83
2019-05-18T10:53:27.764Z,21.73
2019-05-18T10:55:47.763Z,21.73
2019-05-18T10:58:17.675Z,21.81
2019-05-18T11:00:48.663Z,22.00
2019-05-18T11:03:18.698Z,21.79
2019-05-18T11:05:48.722Z,21.62
2019-05-18T11:08:18.728Z,22.21
2019-05-18T11:10:48.883Z,22.27
2019-05-18T11:13:18.787Z,22.66
2019-05-18T11:15:49.705Z,22.94
2019-05-18T11:18:19.697Z,23.20
2019-05-18T11:20:49.802Z,22.98
2019-05-18T11:23:19.703Z,23.20
2019-05-18T11:25:49.746Z,23.33
2019-05-18T11:28:19.815Z,23.03
2019-05-18T11:30:49.869Z,22.56
2019-05-18T11:33:19.909Z,22.55
2019-05-18T11:35:50.123Z,21.90
2019-05-18T11:38:22.494Z,21.43
2019-05-18T11:40:52.839Z,21.22
2019-05-18T11:43:22.965Z,21.22
2019-05-18T11:45:52.982Z,21.41
2019-05-18T11:48:23.083Z,21.60
2019-05-18T11:50:53.177Z,21.18
2019-05-18T11:53:23.245Z,21.44
2019-05-18T11:55:53.143Z,21.52
2019-05-18T11:58:23.122Z,21.69
2019-05-18T12:00:53.307Z,22.24
2019-05-18T12:03:23.362Z,22.42
2019-05-18T12:05:53.423Z,22.32
2019-05-18T12:08:23.420Z,22.15
2019-05-18T12:10:56.125Z,22.26
2019-05-18T12:13:25.390Z,22.51
2019-05-18T12:15:55.562Z,22.62
2019-05-18T12:18:25.527Z,22.99
2019-05-18T12:20:55.376Z,23.90
2019-05-18T12:23:25.270Z,23.89
2019-05-18T12:25:55.221Z,23.12
2019-05-18T12:28:25.236Z,23.48
2019-05-18T12:30:55.217Z,23.64
2019-05-18T12:33:25.312Z,23.73
2019-05-18T12:35:55.336Z,23.99
2019-05-18T12:38:25.172Z,24.20
2019-05-18T12:40:55.429Z,23.88
2019-05-18T12:43:25.479Z,24.34
2019-05-18T12:45:55.410Z,24.49
2019-05-18T12:48:25.434Z,23.97
2019-05-18T12:50:55.558Z,23.22
2019-05-18T12:53:25.797Z,23.12
2019-05-18T12:55:55.740Z,23.26
2019-05-18T12:58:25.672Z,23.25
2019-05-18T13:00:55.679Z,23.67
2019-05-18T13:03:25.662Z,23.62
2019-05-18T13:05:55.659Z,23.82
2019-05-18T13:08:25.567Z,23.32
2019-05-18T13:10:55.548Z,23.68
2019-05-18T13:13:25.558Z,24.05
2019-05-18T13:15:55.503Z,24.02
2019-05-18T13:18:28.540Z,23.72
2019-05-18T13:20:58.591Z,23.44
2019-05-18T13:23:28.539Z,23.66
2019-05-18T13:25:58.530Z,24.09
2019-05-18T13:28:28.525Z,24.27
2019-05-18T13:30:58.533Z,24.27
2019-05-18T13:33:28.586Z,23.97
2019-05-18T13:35:58.563Z,23.45
2019-05-18T13:38:28.559Z,23.86
2019-05-18T13:40:58.583Z,23.86
2019-05-18T13:43:28.855Z,24.13
2019-05-18T13:45:58.741Z,23.99
2019-05-18T13:48:28.725Z,23.84
2019-05-18T13:50:58.764Z,24.01
2019-05-18T13:53:28.814Z,24.09
2019-05-18T13:55:58.760Z,24.15
2019-05-18T13:58:28.645Z,24.13
2019-05-18T14:00:58.568Z,23.70
2019-05-18T14:03:28.509Z,23.31
2019-05-18T14:05:58.379Z,23.25
2019-05-18T14:08:28.446Z,22.85
2019-05-18T14:10:58.387Z,22.79
2019-05-18T14:13:28.296Z,22.85
2019-05-18T14:15:58.216Z,22.56
2019-05-18T14:18:28.201Z,22.68
2019-05-18T14:20:58.048Z,22.81
2019-05-18T14:23:28.162Z,23.36
2019-05-18T14:25:58.093Z,23.82
2019-05-18T14:28:31.263Z,24.29
2019-05-18T14:31:04.165Z,24.46
2019-05-18T14:33:34.331Z,25.10
2019-05-18T14:36:07.249Z,24.92
2019-05-18T14:38:37.427Z,24.87
2019-05-18T14:41:07.517Z,24.94
2019-05-18T14:43:37.477Z,25.06
2019-05-18T14:46:07.590Z,25.12
2019-05-18T14:48:37.418Z,25.01
2019-05-18T14:51:07.421Z,23.92
2019-05-18T14:53:37.370Z,23.94
2019-05-18T14:56:07.529Z,23.96
2019-05-18T14:58:37.483Z,24.29
2019-05-18T15:01:07.631Z,24.97
2019-05-18T15:03:37.526Z,25.39
2019-05-18T15:06:07.511Z,25.88
2019-05-18T15:08:37.414Z,25.19
2019-05-18T15:11:07.435Z,23.96
2019-05-18T15:13:37.426Z,23.85
2019-05-18T15:16:07.396Z,23.60
2019-05-18T15:18:37.231Z,24.03
2019-05-18T15:21:07.196Z,24.42
2019-05-18T15:23:37.645Z,25.09
2019-05-18T15:26:07.548Z,25.03
2019-05-18T15:28:37.583Z,24.36
2019-05-18T15:31:07.592Z,24.34
2019-05-18T15:33:37.588Z,24.46
2019-05-18T15:36:07.623Z,24.90
2019-05-18T15:38:37.489Z,24.94
2019-05-18T15:41:07.397Z,25.19
2019-05-18T15:43:37.398Z,25.39
2019-05-18T15:46:08.401Z,25.52
2019-05-18T15:48:38.427Z,25.17
2019-05-18T15:51:08.410Z,25.73
2019-05-18T15:53:38.455Z,25.98
2019-05-18T15:56:08.524Z,25.82
2019-05-18T15:58:38.533Z,25.75
2019-05-18T16:01:08.483Z,26.10
2019-05-18T16:03:38.427Z,25.55
2019-05-18T16:06:08.784Z,24.99
2019-05-18T16:08:38.620Z,24.12
2019-05-18T16:11:08.651Z,23.38
2019-05-18T16:13:38.780Z,22.89
2019-05-18T16:16:08.900Z,22.52
2019-05-18T16:18:38.805Z,22.46
2019-05-18T16:21:08.721Z,22.74
2019-05-18T16:23:38.740Z,23.27
2019-05-18T16:26:20.709Z,23.82
2019-05-18T16:28:40.342Z,24.30
2019-05-18T16:31:10.271Z,24.65
2019-05-18T16:36:08.653Z,24.70
2019-05-18T16:38:38.496Z,25.00
2019-05-18T16:41:08.404Z,24.51
2019-05-18T16:43:38.411Z,24.36
2019-05-18T16:46:08.385Z,24.61
2019-05-18T16:48:39.525Z,24.83
2019-05-18T16:51:10.074Z,24.97
2019-05-18T16:53:39.957Z,24.71
2019-05-18T16:56:09.841Z,24.67
2019-05-18T16:58:39.741Z,24.82
2019-05-18T17:01:10.739Z,24.75
2019-05-18T17:03:40.660Z,24.75
2019-05-18T17:06:10.871Z,24.59
2019-05-18T17:08:40.774Z,24.54
2019-05-18T17:11:10.757Z,24.65
2019-05-18T17:13:40.750Z,24.06
2019-05-18T17:16:10.736Z,23.60
2019-05-18T17:18:40.650Z,23.08
2019-05-18T17:21:10.572Z,22.91
2019-05-18T17:23:40.502Z,22.97
2019-05-18T17:26:10.403Z,23.21
2019-05-18T17:28:40.265Z,23.16
2019-05-18T17:31:10.312Z,23.42
2019-05-18T17:33:40.242Z,23.62
2019-05-18T17:36:10.084Z,23.73
2019-05-18T17:38:40.014Z,23.75
2019-05-18T17:41:09.935Z,23.93
2019-05-18T17:43:39.960Z,24.39
2019-05-18T17:46:09.809Z,25.51
2019-05-18T17:48:39.832Z,26.54
2019-05-18T17:51:10.562Z,26.92
2019-05-18T17:53:40.541Z,27.53
2019-05-18T17:56:10.461Z,27.71
2019-05-18T17:58:40.465Z,28.14
2019-05-18T18:01:10.347Z,28.48
2019-05-18T18:03:40.229Z,28.26
2019-05-18T18:06:10.245Z,27.81
2019-05-18T18:08:40.237Z,27.98
2019-05-18T18:11:11.936Z,27.94
2019-05-18T18:13:41.826Z,26.99
2019-05-18T18:16:11.752Z,24.75
2019-05-18T18:18:41.923Z,23.35
2019-05-18T18:21:12.000Z,22.33
2019-05-18T18:23:42.080Z,21.60
2019-05-18T18:26:11.984Z,21.11
2019-05-18T18:28:43.093Z,20.67
2019-05-18T18:31:13.083Z,20.32
2019-05-18T18:33:43.028Z,20.06
2019-05-18T18:36:13.063Z,19.79
2019-05-18T18:38:43.014Z,19.58
2019-05-18T18:41:12.974Z,19.33
2019-05-18T18:43:42.959Z,19.11
2019-05-18T18:46:14.049Z,19.01
2019-05-18T18:48:43.902Z,18.97
2019-05-18T18:51:13.807Z,18.88
2019-05-18T18:53:43.699Z,18.83
2019-05-18T18:56:13.622Z,18.75
2019-05-18T18:58:43.621Z,18.66
2019-05-18T19:01:13.606Z,18.62
2019-05-18T19:03:43.597Z,18.56
2019-05-18T19:06:13.552Z,18.50
2019-05-18T19:08:43.372Z,18.41
2019-05-18T19:11:13.385Z,18.34
2019-05-18T19:13:45.726Z,18.29
2019-05-18T19:16:15.052Z,18.22
2019-05-18T19:18:45.069Z,18.13
2019-05-18T19:21:14.989Z,17.99
2019-05-18T19:23:45.029Z,17.80
2019-05-18T19:26:16.023Z,17.56
2019-05-18T19:28:45.903Z,17.34
2019-05-18T19:31:15.890Z,17.11
2019-05-18T19:33:45.715Z,16.96
2019-05-18T19:36:15.621Z,16.79
2019-05-18T19:38:45.606Z,16.66
2019-05-18T19:41:15.749Z,16.63
2019-05-18T19:43:46.263Z,16.56
2019-05-18T19:46:16.181Z,16.54
2019-05-18T19:48:46.080Z,16.37
2019-05-18T19:51:16.275Z,16.23
2019-05-18T19:53:46.187Z,16.06
2019-05-18T19:56:16.087Z,15.98
2019-05-18T19:58:45.950Z,15.92
2019-05-18T20:01:15.843Z,15.85
2019-05-18T20:03:45.750Z,15.81
2019-05-18T20:06:15.665Z,15.76
2019-05-18T20:08:45.577Z,15.74
2019-05-18T20:11:15.416Z,15.69
2019-05-18T20:13:45.242Z,15.61
2019-05-18T20:16:15.216Z,15.47
2019-05-18T20:18:45.140Z,15.38
2019-05-18T20:21:15.039Z,15.35
2019-05-18T20:23:44.896Z,15.31
2019-05-18T20:26:14.720Z,15.30
2019-05-18T20:28:44.657Z,15.31
2019-05-18T20:31:14.572Z,15.33
2019-05-18T20:33:44.541Z,15.30
2019-05-18T20:36:14.463Z,15.22
2019-05-18T20:38:44.378Z,15.09
2019-05-18T20:41:14.291Z,14.98
2019-05-18T20:43:44.225Z,15.01
2019-05-18T20:46:14.166Z,14.91
2019-05-18T20:48:44.026Z,14.76
2019-05-18T20:51:14.028Z,14.70
2019-05-18T20:53:45.088Z,14.64
2019-05-18T20:56:15.013Z,14.53
2019-05-18T20:58:45.091Z,14.39
2019-05-18T21:01:15.004Z,14.30
2019-05-18T21:03:44.923Z,14.26
2019-05-18T21:06:14.821Z,14.22
2019-05-18T21:08:44.722Z,14.20
2019-05-18T21:11:14.685Z,14.25
2019-05-18T21:13:44.660Z,14.24
2019-05-18T21:16:14.651Z,14.23
2019-05-18T21:18:44.600Z,14.21
2019-05-18T21:21:14.419Z,14.22
2019-05-18T21:23:44.384Z,14.18
2019-05-18T21:26:14.211Z,14.12
2019-05-18T21:28:56.195Z,14.04
2019-05-18T21:31:15.648Z,14.03
2019-05-18T21:33:45.468Z,13.98
2019-05-18T21:36:16.766Z,13.93
2019-05-18T21:38:46.764Z,13.87
2019-05-18T21:41:16.679Z,13.76
2019-05-18T21:43:46.570Z,13.64
2019-05-18T21:46:16.415Z,13.61
2019-05-18T21:48:46.412Z,13.55
2019-05-18T21:51:16.313Z,13.43
2019-05-18T21:53:46.320Z,13.30
2019-05-18T21:56:16.173Z,13.17
2019-05-18T21:58:46.055Z,13.06
2019-05-18T22:01:16.039Z,13.05
2019-05-18T22:03:48.326Z,12.94
2019-05-18T22:06:18.909Z,12.89
2019-05-18T22:08:48.925Z,12.87
2019-05-18T22:11:19.904Z,12.80
2019-05-18T22:13:49.818Z,12.64
2019-05-18T22:16:19.719Z,12.60
2019-05-18T22:18:49.723Z,12.63
2019-05-18T22:21:19.565Z,12.56
2019-05-18T22:23:49.590Z,12.54
2019-05-18T22:26:19.566Z,12.54
2019-05-18T22:28:49.442Z,12.55
2019-05-18T22:31:19.793Z,12.49
2019-05-18T22:33:49.845Z,12.50
2019-05-18T22:36:19.684Z,12.48
2019-05-18T22:38:50.697Z,12.47
2019-05-18T22:41:20.491Z,12.48
2019-05-18T22:43:50.363Z,12.45
2019-05-18T22:46:20.341Z,12.45
2019-05-18T22:48:50.306Z,12.38
2019-05-18T22:51:20.282Z,12.36
2019-05-18T22:53:50.237Z,12.26
2019-05-18T22:56:20.165Z,12.08
2019-05-18T22:58:50.099Z,11.94
2019-05-18T23:01:20.096Z,11.72
2019-05-18T23:03:51.738Z,11.63
2019-05-18T23:06:21.965Z,11.63
2019-05-18T23:08:51.835Z,11.62
2019-05-18T23:11:21.673Z,11.64
2019-05-18T23:13:52.606Z,11.63
2019-05-18T23:16:22.532Z,11.69
2019-05-18T23:18:56.938Z,11.67
2019-05-18T23:21:24.110Z,11.59
2019-05-18T23:23:54.107Z,11.44
2019-05-18T23:26:23.965Z,11.44
2019-05-18T23:28:53.909Z,11.49
2019-05-18T23:31:23.847Z,11.49
2019-05-18T23:33:54.836Z,11.33
2019-05-18T23:36:24.774Z,11.21
2019-05-18T23:38:54.698Z,11.16
2019-05-18T23:41:24.591Z,11.16
2019-05-18T23:43:54.478Z,11.17
2019-05-18T23:46:24.400Z,11.21
2019-05-18T23:48:54.224Z,11.20
2019-05-18T23:51:24.161Z,11.11
2019-05-18T23:53:54.051Z,11.00
2019-05-18T23:56:23.967Z,10.92
2019-05-18T23:58:53.940Z,10.98
